This is the latest recevied weather packets stored in our database for station/object N1OTX. If no packets are shown the sender has not sent any weather packets the latest 10 day(s).
| Time | Temp. | Humidity | Pressure | Rain* | Wind** | Luminosity | Snow |
|---|---|---|---|---|---|---|---|
| 1777655450 | 15° C | 42% | 1009.2 hPa | 0 mm | - | 871 W/m² | - |
| 1777654530 | 15° C | 42% | 1009.1 hPa | 0 mm | - | 844 W/m² | - |
| 1777653329 | 14.44° C | 42% | 1009.5 hPa | 0 mm | - | 850 W/m² | - |
| 1777652751 | 14.44° C | 43% | 1009.5 hPa | 0 mm | - | 773 W/m² | - |
| 1777652430 | 13.89° C | 44% | 1009.5 hPa | 0 mm | - | 814 W/m² | - |
| 1777652151 | 13.89° C | 44% | 1009.7 hPa | 0 mm | - | 868 W/m² | - |
| 1777650329 | 12.78° C | 48% | 1009.9 hPa | 0 mm | - | 793 W/m² | - |
| 1777648271 | 12.78° C | 49% | 1010 hPa | 0 mm | - | 445 W/m² | - |
| 1777647330 | 12.78° C | 49% | 1010.2 hPa | 0 mm | - | 486 W/m² | - |
| 1777646430 | 12.22° C | 50% | 1010.3 hPa | 0 mm | - | 323 W/m² | - |
| 1777645249 | 12.22° C | 50% | 1010.2 hPa | 0 mm | - | 623 W/m² | - |
| 1777641930 | 11.11° C | 54% | 1009.9 hPa | 0 mm | - | 559 W/m² | - |
| 1777639831 | 10.56° C | 58% | 1009.9 hPa | 0 mm | - | 453 W/m² | - |
| 1777639530 | 10.56° C | 61% | 1009.9 hPa | 0 mm | - | 437 W/m² | - |
| 1777638930 | 10° C | 64% | 1009.9 hPa | 0 mm | - | 404 W/m² | - |
| 1777638330 | 10° C | 65% | 1009.9 hPa | 0 mm | - | 371 W/m² | - |
| 1777633830 | 8.33° C | 75% | 1009.5 hPa | 0 mm | - | 100 W/m² | - |
| 1777632629 | 7.22° C | 77% | 1009.4 hPa | 0 mm | - | 65 W/m² | - |
| 1777631130 | 7.22° C | 79% | 1009.2 hPa | 0 mm | - | 26 W/m² | - |
| 1777630529 | 6.67° C | 80% | 1009.1 hPa | 0 mm | - | 19 W/m² | - |
| 1777626329 | 7.78° C | 81% | 1008.7 hPa | 0 mm | - | 0 W/m² | - |
| 1777624231 | 7.78° C | 79% | 1008.4 hPa | 0 mm | - | 0 W/m² | - |
| 1777623930 | 7.78° C | 79% | 1008.3 hPa | 0 mm | - | 0 W/m² | - |
| 1777623330 | 7.78° C | 77% | 1008.1 hPa | 0 mm | - | 0 W/m² | - |
| 1777622129 | 8.33° C | 75% | 1008.1 hPa | 0 mm | - | 0 W/m² | - |
* Rain latest hour (hover to see other rain measurements)
** Current wind speed in m/s (hover to see current wind gust speed)